Time;durP1;ratioP1;P1;durP2;ratioP2;P2;SDS_P1;SDS_P2;PMS_P1;PMS_P2;Temp;Humidity;BMP_temperature;BMP_pressure;BME280_temperature;BME280_humidity;BME280_pressure;Samples;Min_cycle;Max_cycle;Signal;HPM_P1;HPM_P2
2023/11/13 00:02:24;;;;;;;16.43;12.20;;;9.80;99.90;;;;;;5061561;28;21004;-73
2023/11/13 00:04:50;;;;;;;15.50;11.63;;;9.70;99.90;;;;;;5065254;28;20455;-73
2023/11/13 00:07:16;;;;;;;13.63;11.57;;;9.80;99.90;;;;;;5062411;28;20182;-73
2023/11/13 00:09:41;;;;;;;17.13;13.40;;;9.80;99.90;;;;;;5058892;28;20434;-72
2023/11/13 00:12:07;;;;;;;15.63;12.00;;;9.70;99.90;;;;;;5063704;28;20179;-73
2023/11/13 00:14:33;;;;;;;15.80;11.73;;;9.80;99.90;;;;;;5055607;28;20171;-73
2023/11/13 00:17:00;;;;;;;14.07;11.20;;;9.80;99.90;;;;;;5061072;28;20610;-73
2023/11/13 00:19:25;;;;;;;16.70;12.23;;;9.80;99.90;;;;;;5058454;28;20191;-73
2023/11/13 00:21:51;;;;;;;15.60;11.30;;;9.80;99.90;;;;;;5061652;28;20431;-73
2023/11/13 00:24:17;;;;;;;15.07;11.43;;;9.90;99.90;;;;;;5060938;28;20229;-73
2023/11/13 00:26:43;;;;;;;13.90;11.57;;;9.90;99.90;;;;;;5063327;28;20245;-73
2023/11/13 00:29:08;;;;;;;13.50;10.17;;;9.90;99.90;;;;;;5059786;28;20422;-73
2023/11/13 00:31:34;;;;;;;13.57;11.17;;;9.90;99.90;;;;;;5062036;28;20529;-73
2023/11/13 00:33:59;;;;;;;16.90;12.50;;;9.90;99.90;;;;;;5058530;28;20322;-73
2023/11/13 00:36:25;;;;;;;15.83;12.40;;;10.00;99.90;;;;;;5062807;28;20175;-73
2023/11/13 00:38:51;;;;;;;13.27;10.40;;;10.00;99.90;;;;;;5058308;28;20319;-73
2023/11/13 00:41:17;;;;;;;14.23;10.53;;;10.00;99.90;;;;;;5062518;28;20714;-73
2023/11/13 00:43:43;;;;;;;12.10;9.90;;;10.00;99.90;;;;;;5051419;28;20194;-73
2023/11/13 00:46:08;;;;;;;12.83;10.17;;;10.00;99.90;;;;;;5060001;28;20464;-73
2023/11/13 00:48:37;;;;;;;12.13;10.00;;;10.00;99.90;;;;;;5060096;28;20195;-73
2023/11/13 00:51:03;;;;;;;13.27;10.03;;;10.00;99.90;;;;;;5069288;28;20435;-72
2023/11/13 00:53:36;;;;;;;12.50;10.27;;;10.00;99.90;;;;;;5076728;28;20547;-73
2023/11/13 00:56:09;;;;;;;12.70;9.80;;;10.00;99.90;;;;;;5059851;28;20429;-73
2023/11/13 00:58:36;;;;;;;15.67;10.83;;;10.00;99.90;;;;;;5058533;28;20483;-72
2023/11/13 01:01:05;;;;;;;13.43;9.97;;;10.10;99.90;;;;;;5057527;28;20460;-73
2023/11/13 01:03:32;;;;;;;14.03;9.60;;;10.10;99.90;;;;;;5056272;28;20528;-73
2023/11/13 01:05:57;;;;;;;12.90;9.50;;;10.10;99.90;;;;;;5058469;28;20468;-73
2023/11/13 01:08:23;;;;;;;12.60;9.57;;;10.10;99.90;;;;;;5059239;28;20916;-72
2023/11/13 01:10:49;;;;;;;14.27;10.53;;;10.10;99.90;;;;;;5057316;28;20206;-72
2023/11/13 01:13:15;;;;;;;13.20;10.47;;;10.10;99.90;;;;;;5055531;28;20217;-72
2023/11/13 01:15:41;;;;;;;10.43;8.83;;;10.10;99.90;;;;;;5064407;28;20555;-72
2023/11/13 01:18:07;;;;;;;11.43;9.40;;;10.10;99.90;;;;;;5062734;28;20248;-73
2023/11/13 01:20:33;;;;;;;12.43;9.47;;;10.20;99.90;;;;;;5063464;28;20421;-72
2023/11/13 01:22:58;;;;;;;10.17;7.80;;;10.20;99.90;;;;;;5064577;28;20211;-72
2023/11/13 01:25:24;;;;;;;9.87;8.50;;;10.20;99.90;;;;;;5062171;28;20185;-72
2023/11/13 01:27:50;;;;;;;10.53;8.87;;;10.20;99.90;;;;;;5063923;28;20199;-72
2023/11/13 01:30:15;;;;;;;9.80;8.47;;;10.20;99.90;;;;;;5064052;28;20215;-73
2023/11/13 01:32:41;;;;;;;9.27;8.10;;;10.20;99.90;;;;;;5061134;28;20237;-72
2023/11/13 01:35:07;;;;;;;10.67;8.10;;;10.20;99.90;;;;;;5063809;28;20645;-72
2023/11/13 01:37:33;;;;;;;9.93;8.53;;;10.20;99.90;;;;;;5058672;28;20247;-72
2023/11/13 01:39:58;;;;;;;10.30;8.30;;;10.20;99.90;;;;;;5062014;28;20448;-72
2023/11/13 01:42:24;;;;;;;9.23;8.20;;;10.20;99.90;;;;;;5062539;28;20211;-72
2023/11/13 01:44:51;;;;;;;9.50;7.73;;;10.20;99.90;;;;;;5060263;28;20663;-73
2023/11/13 01:47:17;;;;;;;8.60;7.03;;;10.20;99.90;;;;;;5064755;28;20649;-73
2023/11/13 01:49:44;;;;;;;9.23;7.40;;;10.20;99.90;;;;;;5063239;28;20425;-73
2023/11/13 01:52:11;;;;;;;10.77;7.53;;;10.30;99.90;;;;;;5063818;28;20416;-73
2023/11/13 01:54:37;;;;;;;11.77;7.90;;;10.30;99.90;;;;;;5059664;28;20508;-73
2023/11/13 01:57:05;;;;;;;9.87;8.60;;;10.30;99.90;;;;;;5060608;28;20441;-73
2023/11/13 01:59:32;;;;;;;12.00;8.83;;;10.30;99.90;;;;;;5061589;28;20183;-73
2023/11/13 02:02:00;;;;;;;11.27;7.23;;;10.30;99.90;;;;;;5059588;28;20437;-73
2023/11/13 02:04:26;;;;;;;9.57;7.40;;;10.30;99.90;;;;;;5078963;28;20443;-73
2023/11/13 02:06:52;;;;;;;8.40;6.80;;;10.40;99.90;;;;;;5061427;28;20514;-73
2023/11/13 02:09:19;;;;;;;10.67;7.73;;;10.30;99.90;;;;;;5061877;28;20184;-73
2023/11/13 02:11:45;;;;;;;8.97;7.30;;;10.40;99.90;;;;;;5062128;28;20448;-73
2023/11/13 02:14:11;;;;;;;9.60;7.23;;;10.40;99.90;;;;;;5063769;28;20527;-73
2023/11/13 02:16:36;;;;;;;10.00;7.47;;;10.40;99.90;;;;;;5061817;28;20176;-73
2023/11/13 02:19:02;;;;;;;9.67;7.23;;;10.40;99.90;;;;;;5060598;28;20468;-73
2023/11/13 02:21:28;;;;;;;9.47;7.30;;;10.40;99.90;;;;;;5064708;28;20762;-73
2023/11/13 02:23:55;;;;;;;9.50;7.20;;;10.40;99.90;;;;;;5058744;28;20223;-73
2023/11/13 02:26:22;;;;;;;8.50;6.80;;;10.40;99.90;;;;;;5063772;28;20179;-73
2023/11/13 02:28:48;;;;;;;11.13;7.87;;;10.40;99.90;;;;;;5063550;28;20413;-73
2023/11/13 02:31:13;;;;;;;10.30;8.40;;;10.40;99.90;;;;;;5061635;28;20790;-73
2023/11/13 02:33:39;;;;;;;9.73;7.30;;;10.50;99.90;;;;;;5060785;28;20233;-73
2023/11/13 02:36:05;;;;;;;10.27;8.40;;;10.50;99.90;;;;;;5067340;28;20248;-73
2023/11/13 02:38:31;;;;;;;9.60;7.63;;;10.50;99.90;;;;;;5062469;28;20211;-73
2023/11/13 02:40:58;;;;;;;9.10;6.97;;;10.50;99.90;;;;;;5064421;28;20417;-73
2023/11/13 02:43:26;;;;;;;10.17;7.90;;;10.50;99.90;;;;;;5059591;28;20226;-73
2023/11/13 02:45:53;;;;;;;9.13;7.70;;;10.50;99.90;;;;;;5061457;28;20483;-73
2023/11/13 02:48:19;;;;;;;10.90;8.40;;;10.50;99.90;;;;;;5062009;28;20433;-73
2023/11/13 02:50:45;;;;;;;9.87;7.83;;;10.50;99.90;;;;;;5059683;28;20431;-73
2023/11/13 02:53:11;;;;;;;11.13;8.07;;;10.40;99.90;;;;;;5023775;28;1063178;-72
2023/11/13 02:55:36;;;;;;;9.30;8.03;;;10.40;99.90;;;;;;5059809;28;20195;-72
2023/11/13 02:58:02;;;;;;;13.10;9.43;;;10.40;99.90;;;;;;5060557;28;20290;-73
2023/11/13 03:00:28;;;;;;;9.07;6.90;;;10.40;99.90;;;;;;5062504;28;20180;-73
2023/11/13 03:02:54;;;;;;;11.03;8.17;;;10.50;99.90;;;;;;5062575;28;20282;-74
2023/11/13 03:05:19;;;;;;;9.83;7.63;;;10.50;99.90;;;;;;5064083;28;20962;-72
2023/11/13 03:07:45;;;;;;;10.70;7.70;;;10.60;99.90;;;;;;5060988;28;20232;-72
2023/11/13 03:10:11;;;;;;;8.00;5.77;;;10.70;99.90;;;;;;5061818;28;20546;-73
2023/11/13 03:12:39;;;;;;;10.30;6.87;;;10.70;99.90;;;;;;5063514;28;20218;-72
2023/11/13 03:15:06;;;;;;;6.80;5.20;;;10.80;99.90;;;;;;5063211;28;20182;-72
2023/11/13 03:17:32;;;;;;;7.50;4.20;;;10.90;99.90;;;;;;5057673;28;20962;-72
2023/11/13 03:19:57;;;;;;;10.43;4.70;;;11.00;99.90;;;;;;5061844;28;20543;-72
2023/11/13 03:22:23;;;;;;;6.37;2.90;;;11.10;99.90;;;;;;5058354;28;20220;-72
2023/11/13 03:24:48;;;;;;;9.57;3.73;;;11.30;99.90;;;;;;5058941;28;20179;-72
2023/11/13 03:27:14;;;;;;;5.70;1.90;;;11.30;99.90;;;;;;5061890;28;20175;-72
2023/11/13 03:29:39;;;;;;;6.27;2.03;;;11.40;99.90;;;;;;5059743;28;20179;-72
2023/11/13 03:32:05;;;;;;;6.23;2.50;;;11.60;99.90;;;;;;5059807;28;20680;-72
2023/11/13 03:34:32;;;;;;;6.43;2.20;;;11.70;99.90;;;;;;5064853;28;20269;-72
2023/11/13 03:36:57;;;;;;;10.83;3.10;;;11.80;99.90;;;;;;5058415;28;20425;-72
2023/11/13 03:39:23;;;;;;;5.07;2.70;;;11.90;99.90;;;;;;5056833;28;20521;-72
2023/11/13 03:41:48;;;;;;;5.33;2.30;;;12.00;99.90;;;;;;5057912;28;20188;-72
2023/11/13 03:44:14;;;;;;;2.77;1.60;;;12.00;99.90;;;;;;5061268;28;20284;-72
2023/11/13 03:46:40;;;;;;;4.67;2.03;;;12.10;99.90;;;;;;5059910;28;20176;-72
2023/11/13 03:49:05;;;;;;;3.87;1.97;;;12.10;99.90;;;;;;5061566;28;20594;-72
2023/11/13 03:51:31;;;;;;;10.60;2.43;;;12.10;99.90;;;;;;5061283;28;20187;-72
2023/11/13 03:53:56;;;;;;;5.00;1.90;;;12.20;99.90;;;;;;5061233;28;20243;-72
2023/11/13 03:56:25;;;;;;;6.03;1.80;;;12.10;99.90;;;;;;5061540;28;20210;-72
2023/11/13 03:58:51;;;;;;;5.00;1.63;;;12.20;99.90;;;;;;5062594;28;20257;-73
2023/11/13 04:01:19;;;;;;;7.77;2.20;;;12.20;99.90;;;;;;5057311;28;20866;-73
2023/11/13 04:03:45;;;;;;;10.83;2.50;;;12.30;99.90;;;;;;5059397;28;20538;-72
2023/11/13 04:06:11;;;;;;;7.67;2.10;;;12.30;99.90;;;;;;5057053;28;20838;-73
2023/11/13 04:08:36;;;;;;;7.40;2.23;;;12.20;99.90;;;;;;5059499;28;20516;-73
2023/11/13 04:11:05;;;;;;;11.10;2.70;;;12.20;99.90;;;;;;5059546;28;20255;-73
2023/11/13 04:13:32;;;;;;;7.70;2.30;;;12.20;99.90;;;;;;5057988;28;20235;-73
2023/11/13 04:16:02;;;;;;;5.13;2.20;;;12.20;99.90;;;;;;5057410;28;21669;-73
2023/11/13 04:18:28;;;;;;;8.10;2.60;;;12.20;99.90;;;;;;5057332;28;20941;-73
2023/11/13 04:20:55;;;;;;;8.13;2.37;;;12.30;99.90;;;;;;5055347;28;20419;-73
2023/11/13 04:23:21;;;;;;;9.50;2.77;;;12.30;99.90;;;;;;5056580;28;20884;-73
2023/11/13 04:25:48;;;;;;;8.53;2.60;;;12.30;99.90;;;;;;5055999;28;20423;-73
2023/11/13 04:28:14;;;;;;;7.00;3.13;;;12.30;99.90;;;;;;5058472;28;20433;-73
2023/11/13 04:30:40;;;;;;;10.87;2.90;;;12.30;99.90;;;;;;5060298;28;20434;-73
2023/11/13 04:33:05;;;;;;;10.60;3.40;;;12.40;99.90;;;;;;5061077;28;20452;-73
2023/11/13 04:35:31;;;;;;;6.53;2.50;;;12.40;99.90;;;;;;5056863;28;20194;-73
2023/11/13 04:37:57;;;;;;;6.67;2.73;;;12.50;99.90;;;;;;5059805;28;20218;-73
2023/11/13 04:40:23;;;;;;;8.23;2.57;;;12.50;99.90;;;;;;5058043;28;20429;-73
2023/11/13 04:42:49;;;;;;;6.83;3.03;;;12.50;99.90;;;;;;5063041;28;20875;-73
2023/11/13 04:45:14;;;;;;;6.23;2.60;;;12.50;99.90;;;;;;5061614;28;20183;-73
2023/11/13 04:47:40;;;;;;;7.60;3.20;;;12.50;99.90;;;;;;5068918;28;20624;-73
2023/11/13 04:50:06;;;;;;;8.37;2.73;;;12.60;99.90;;;;;;5071006;28;20794;-72
2023/11/13 04:52:32;;;;;;;6.40;2.83;;;12.60;99.90;;;;;;5061340;28;20214;-73
2023/11/13 04:54:57;;;;;;;12.33;2.97;;;12.60;99.90;;;;;;5064254;28;20478;-73
2023/11/13 04:57:23;;;;;;;9.40;3.10;;;12.60;99.90;;;;;;5058246;28;20187;-73
2023/11/13 04:59:49;;;;;;;10.57;2.60;;;12.60;99.90;;;;;;5059350;28;20187;-72
2023/11/13 05:02:15;;;;;;;10.30;2.90;;;12.70;99.90;;;;;;5060914;28;20268;-72
2023/11/13 05:04:43;;;;;;;18.90;3.50;;;12.70;99.90;;;;;;5061876;28;20530;-72
2023/11/13 05:07:08;;;;;;;8.27;2.77;;;12.70;99.90;;;;;;5057774;28;20469;-73
2023/11/13 05:09:34;;;;;;;11.37;3.43;;;12.60;99.90;;;;;;5059274;28;20506;-73
2023/11/13 05:11:59;;;;;;;7.50;2.93;;;12.60;99.90;;;;;;5058483;28;20219;-73
2023/11/13 05:14:25;;;;;;;12.60;3.03;;;12.70;99.90;;;;;;5056733;28;20213;-73
2023/11/13 05:16:55;;;;;;;10.80;3.07;;;12.80;99.90;;;;;;5058667;28;20176;-73
2023/11/13 05:19:20;;;;;;;19.87;3.83;;;12.80;99.90;;;;;;5060430;28;20202;-72
2023/11/13 05:21:46;;;;;;;13.63;4.20;;;12.70;99.90;;;;;;5057046;28;20802;-72
2023/11/13 05:24:12;;;;;;;9.90;3.20;;;12.70;99.90;;;;;;5054857;28;20596;-72
2023/11/13 05:26:37;;;;;;;23.83;3.33;;;12.70;99.90;;;;;;5055679;28;20422;-73
2023/11/13 05:29:03;;;;;;;14.13;3.57;;;12.70;99.90;;;;;;5059570;28;20183;-72
2023/11/13 05:31:29;;;;;;;16.00;5.70;;;12.80;99.90;;;;;;5058900;28;20226;-73
2023/11/13 05:33:54;;;;;;;17.03;3.00;;;12.80;99.90;;;;;;5056571;28;20691;-73
2023/11/13 05:36:20;;;;;;;13.30;2.80;;;12.80;99.90;;;;;;5058972;28;20199;-73
2023/11/13 05:38:45;;;;;;;12.97;3.93;;;12.80;99.90;;;;;;5061636;28;20223;-73
2023/11/13 05:41:11;;;;;;;11.80;3.67;;;12.80;99.90;;;;;;5061283;28;20187;-73
2023/11/13 05:43:37;;;;;;;16.43;3.90;;;12.80;99.90;;;;;;5055370;28;20203;-73
2023/11/13 05:46:03;;;;;;;9.73;3.27;;;12.70;99.90;;;;;;5058823;28;20190;-73
2023/11/13 05:48:28;;;;;;;20.77;4.57;;;12.70;99.90;;;;;;5059816;28;20210;-73
2023/11/13 05:50:54;;;;;;;15.67;4.40;;;12.70;99.90;;;;;;5057218;28;20194;-73
2023/11/13 05:53:21;;;;;;;12.53;3.90;;;12.70;99.90;;;;;;5056608;28;20264;-73
2023/11/13 05:55:47;;;;;;;22.63;4.80;;;12.80;99.90;;;;;;5059379;28;20629;-73
2023/11/13 05:58:13;;;;;;;15.67;3.80;;;12.80;99.90;;;;;;5059069;28;20480;-73
2023/11/13 06:00:38;;;;;;;11.07;3.87;;;12.80;99.90;;;;;;5056991;28;20913;-73
2023/11/13 06:03:04;;;;;;;10.97;3.80;;;12.80;99.90;;;;;;5063066;28;20218;-73
2023/11/13 06:05:29;;;;;;;14.80;3.77;;;12.80;99.90;;;;;;5060084;28;20206;-73
2023/11/13 06:07:55;;;;;;;20.27;4.80;;;12.80;99.90;;;;;;5062093;28;20187;-73
2023/11/13 06:10:21;;;;;;;14.90;5.33;;;12.90;99.90;;;;;;5058941;28;20187;-73
2023/11/13 06:12:46;;;;;;;19.47;4.00;;;12.90;99.90;;;;;;5062333;28;20214;-73
2023/11/13 06:15:13;;;;;;;19.30;4.70;;;12.90;99.90;;;;;;5060626;28;20217;-73
2023/11/13 06:17:40;;;;;;;13.97;3.87;;;12.90;99.90;;;;;;5061715;28;20658;-73
2023/11/13 06:20:06;;;;;;;14.70;4.70;;;12.90;99.90;;;;;;5061414;28;20414;-73
2023/11/13 06:22:31;;;;;;;15.80;4.10;;;13.00;99.90;;;;;;5063384;28;20467;-73
2023/11/13 06:24:57;;;;;;;15.47;4.27;;;13.00;99.90;;;;;;5058881;28;20453;-73
2023/11/13 06:27:23;;;;;;;15.60;4.77;;;13.00;99.90;;;;;;5057991;28;20209;-73
2023/11/13 06:29:50;;;;;;;7.97;3.40;;;13.00;99.90;;;;;;5059247;28;20529;-73
2023/11/13 06:32:16;;;;;;;9.70;3.47;;;12.90;99.90;;;;;;5062251;28;20190;-73
2023/11/13 06:34:41;;;;;;;12.57;5.03;;;12.90;99.90;;;;;;5057914;28;20682;-73
2023/11/13 06:37:07;;;;;;;18.30;4.30;;;12.90;99.90;;;;;;5058880;28;20216;-73
2023/11/13 06:39:32;;;;;;;10.27;3.73;;;12.90;99.90;;;;;;5058185;28;20217;-73
2023/11/13 06:41:58;;;;;;;17.33;3.70;;;12.80;99.90;;;;;;5059277;28;20232;-73
2023/11/13 06:44:24;;;;;;;15.10;4.33;;;12.80;99.90;;;;;;5058688;28;20661;-73
2023/11/13 06:46:49;;;;;;;13.47;4.10;;;12.70;99.90;;;;;;5058845;28;20206;-73
2023/11/13 06:49:18;;;;;;;16.13;4.60;;;12.80;99.90;;;;;;5054935;28;20569;-73
2023/11/13 06:51:44;;;;;;;20.10;6.50;;;12.70;99.90;;;;;;5062753;28;20676;-73
2023/11/13 06:54:10;;;;;;;13.93;3.80;;;12.70;99.90;;;;;;5062697;28;20462;-73
2023/11/13 06:56:36;;;;;;;13.93;4.87;;;12.70;99.90;;;;;;5061418;28;20421;-72
2023/11/13 06:59:02;;;;;;;12.47;3.50;;;12.70;99.90;;;;;;5063964;28;20460;-72
2023/11/13 07:01:27;;;;;;;15.83;3.97;;;12.70;99.90;;;;;;5061202;28;20448;-73
2023/11/13 07:03:53;;;;;;;17.73;4.33;;;12.80;99.90;;;;;;5054109;28;20240;-73
2023/11/13 07:06:19;;;;;;;11.77;4.47;;;12.80;99.90;;;;;;5059875;28;20186;-73
2023/11/13 07:08:45;;;;;;;14.93;4.50;;;12.80;99.90;;;;;;5059463;28;20434;-73
2023/11/13 07:11:14;;;;;;;15.50;4.13;;;12.70;99.90;;;;;;5059341;28;20210;-73
2023/11/13 07:13:40;;;;;;;12.50;4.63;;;12.80;99.90;;;;;;5058525;28;20206;-73
2023/11/13 07:16:10;;;;;;;14.33;4.40;;;12.80;99.90;;;;;;5062464;28;20630;-72
2023/11/13 07:18:36;;;;;;;17.70;4.47;;;12.80;99.90;;;;;;5058242;28;20489;-73
2023/11/13 07:21:02;;;;;;;12.90;3.67;;;12.80;99.90;;;;;;5056118;28;20465;-73
2023/11/13 07:23:29;;;;;;;13.03;4.83;;;12.90;99.90;;;;;;5054604;28;20203;-73
2023/11/13 07:25:55;;;;;;;13.93;4.03;;;12.80;99.90;;;;;;5058624;28;20453;-73
2023/11/13 07:28:21;;;;;;;17.80;4.90;;;12.90;99.90;;;;;;5059118;28;20891;-73
2023/11/13 07:30:46;;;;;;;14.23;4.07;;;12.80;99.90;;;;;;5061976;28;20437;-73
2023/11/13 07:33:12;;;;;;;10.90;3.40;;;12.80;99.90;;;;;;5056998;28;20203;-73
2023/11/13 07:35:39;;;;;;;14.53;3.70;;;12.80;99.90;;;;;;5059615;28;20187;-73
2023/11/13 07:38:08;;;;;;;11.93;5.57;;;12.80;99.90;;;;;;5065627;28;20206;-73
2023/11/13 07:40:35;;;;;;;10.00;4.10;;;12.80;99.90;;;;;;5058908;28;20438;-73
2023/11/13 07:43:01;;;;;;;17.03;4.17;;;12.80;99.90;;;;;;5059979;28;20483;-73
2023/11/13 07:45:28;;;;;;;14.43;3.87;;;12.70;99.90;;;;;;5052834;28;20613;-72
2023/11/13 07:47:56;;;;;;;12.63;4.13;;;12.70;99.90;;;;;;5055255;28;20414;-72
2023/11/13 07:50:23;;;;;;;11.03;4.60;;;12.70;99.90;;;;;;5055549;28;20479;-72
2023/11/13 07:52:50;;;;;;;7.13;2.87;;;12.60;99.90;;;;;;5059707;28;20486;-72
2023/11/13 07:55:18;;;;;;;6.93;3.53;;;12.60;99.90;;;;;;5055640;28;20425;-72
2023/11/13 07:57:44;;;;;;;11.00;5.30;;;12.50;99.90;;;;;;5059679;28;20460;-72
2023/11/13 08:00:11;;;;;;;14.87;3.47;;;12.50;99.90;;;;;;5055672;28;20488;-72
2023/11/13 08:02:42;;;;;;;9.77;4.70;;;12.50;99.90;;;;;;5046363;28;20446;-72
2023/11/13 08:05:11;;;;;;;12.47;4.50;;;12.50;99.90;;;;;;5057033;28;20936;-71
2023/11/13 08:07:41;;;;;;;8.10;3.50;;;12.50;99.90;;;;;;5058054;28;20410;-71
2023/11/13 08:10:13;;;;;;;12.80;3.90;;;12.40;99.90;;;;;;5039498;28;20936;-70
2023/11/13 08:12:45;;;;;;;10.10;3.90;;;12.30;99.90;;;;;;5055816;28;20510;-71
2023/11/13 08:15:15;;;;;;;10.20;3.60;;;12.40;99.90;;;;;;5058999;28;20466;-71
2023/11/13 08:17:45;;;;;;;9.53;3.17;;;12.30;99.90;;;;;;5054774;28;20495;-71
2023/11/13 08:20:14;;;;;;;14.53;4.37;;;12.30;99.90;;;;;;5055277;28;20421;-74
2023/11/13 08:22:42;;;;;;;7.63;2.80;;;12.30;99.90;;;;;;5054432;28;20441;-72
2023/11/13 08:25:12;;;;;;;7.70;3.10;;;12.30;99.90;;;;;;5059466;28;20946;-72
2023/11/13 08:27:45;;;;;;;7.60;3.43;;;12.30;99.90;;;;;;5050276;28;20490;-72
2023/11/13 08:30:14;;;;;;;10.60;4.30;;;12.40;99.90;;;;;;5055321;28;20518;-73
2023/11/13 08:32:42;;;;;;;9.53;3.60;;;12.30;99.90;;;;;;5058663;28;20441;-73
2023/11/13 08:35:12;;;;;;;9.83;3.47;;;12.40;99.90;;;;;;5057810;28;20437;-72
2023/11/13 08:37:39;;;;;;;10.20;3.30;;;12.30;99.90;;;;;;5057227;28;22384;-73
2023/11/13 08:40:06;;;;;;;9.70;3.83;;;12.40;99.90;;;;;;5058767;28;20437;-72
2023/11/13 08:42:31;;;;;;;9.53;3.63;;;12.40;99.90;;;;;;5060082;28;20435;-72
2023/11/13 08:44:57;;;;;;;6.70;3.80;;;12.60;99.90;;;;;;5059947;28;20425;-71
2023/11/13 08:47:23;;;;;;;8.27;4.77;;;12.50;99.90;;;;;;5056813;28;20187;-71
2023/11/13 08:49:49;;;;;;;9.43;3.40;;;12.50;99.90;;;;;;5058715;28;20413;-71
2023/11/13 08:52:14;;;;;;;10.60;4.03;;;12.50;99.90;;;;;;5055079;28;20179;-71
2023/11/13 08:54:40;;;;;;;8.77;4.17;;;12.50;99.90;;;;;;5059480;28;20187;-72
2023/11/13 08:57:11;;;;;;;11.20;7.27;;;12.50;99.90;;;;;;5060566;28;20184;-72
2023/11/13 08:59:38;;;;;;;9.17;5.50;;;12.50;99.90;;;;;;5053099;28;20287;-71
2023/11/13 09:02:07;;;;;;;12.53;3.47;;;12.60;99.90;;;;;;5057193;28;20487;-71
2023/11/13 09:04:34;;;;;;;9.03;3.53;;;12.60;99.90;;;;;;5058792;28;20418;-70
2023/11/13 09:07:07;;;;;;;8.70;3.33;;;12.70;99.90;;;;;;5060708;28;20438;-71
2023/11/13 09:09:34;;;;;;;11.03;4.30;;;12.70;99.90;;;;;;5060461;28;20554;-71
2023/11/13 09:12:01;;;;;;;8.73;3.87;;;12.80;99.90;;;;;;5055820;28;20478;-71
2023/11/13 09:14:27;;;;;;;7.73;3.63;;;12.80;99.90;;;;;;5058668;28;20506;-72
2023/11/13 09:16:53;;;;;;;6.00;4.03;;;12.80;99.90;;;;;;5058684;28;20421;-72
2023/11/13 09:19:19;;;;;;;10.63;4.10;;;12.90;99.90;;;;;;5056345;28;20211;-72
2023/11/13 09:21:45;;;;;;;8.37;3.70;;;12.90;99.90;;;;;;5054270;28;21119;-72
2023/11/13 09:24:13;;;;;;;7.70;3.83;;;12.90;99.90;;;;;;5055882;28;20457;-72
2023/11/13 09:26:40;;;;;;;9.43;4.47;;;13.00;99.90;;;;;;5058535;28;20413;-72
2023/11/13 09:29:08;;;;;;;7.37;3.00;;;13.00;99.90;;;;;;5058220;28;20663;-72
2023/11/13 09:31:33;;;;;;;10.97;3.63;;;13.10;99.90;;;;;;5055372;28;20433;-73
2023/11/13 09:33:59;;;;;;;9.60;3.43;;;13.20;99.90;;;;;;5056941;28;20460;-73
2023/11/13 09:36:27;;;;;;;6.13;3.50;;;13.20;99.90;;;;;;5062898;28;20183;-74
2023/11/13 09:38:53;;;;;;;7.27;2.80;;;13.20;99.90;;;;;;5058818;28;20557;-74
2023/11/13 09:41:25;;;;;;;5.17;2.30;;;13.30;99.90;;;;;;5058177;28;20434;-74
2023/11/13 09:43:51;;;;;;;6.60;2.40;;;13.40;99.90;;;;;;5061560;28;20480;-74
2023/11/13 09:46:20;;;;;;;4.90;2.33;;;13.40;99.90;;;;;;5062590;28;20417;-72
2023/11/13 09:48:50;;;;;;;5.40;2.37;;;13.50;99.90;;;;;;5055210;28;20451;-72
2023/11/13 09:51:17;;;;;;;9.03;2.40;;;13.60;99.90;;;;;;5055295;28;20437;-72
2023/11/13 09:53:44;;;;;;;6.30;2.30;;;13.70;99.90;;;;;;5058149;28;20582;-73
2023/11/13 09:56:15;;;;;;;6.77;2.17;;;13.70;99.90;;;;;;5058287;28;20441;-72
2023/11/13 09:58:41;;;;;;;4.57;2.37;;;13.80;99.90;;;;;;5057021;28;21115;-72
2023/11/13 10:01:09;;;;;;;4.80;2.50;;;13.80;99.90;;;;;;5061078;28;20421;-72
2023/11/13 10:03:36;;;;;;;4.53;2.30;;;13.90;99.90;;;;;;5062253;28;20515;-71
2023/11/13 10:06:08;;;;;;;7.67;3.07;;;13.90;99.90;;;;;;5060601;28;20436;-71
2023/11/13 10:08:49;;;;;;;5.93;2.17;;;13.90;99.90;;;;;;5057351;28;20454;-70
2023/11/13 10:11:15;;;;;;;4.00;2.67;;;13.90;99.90;;;;;;5059126;28;20444;-71
2023/11/13 10:13:41;;;;;;;4.53;2.23;;;13.90;99.90;;;;;;5062914;28;20444;-74
2023/11/13 10:16:21;;;;;;;6.47;2.73;;;13.80;99.90;;;;;;5062295;28;20418;-74
2023/11/13 10:18:47;;;;;;;7.20;3.00;;;13.90;99.90;;;;;;5062700;28;20259;-73
2023/11/13 10:21:39;;;;;;;6.23;2.80;;;14.00;99.90;;;;;;5062433;28;20429;-72
2023/11/13 10:24:23;;;;;;;6.23;3.20;;;14.00;99.90;;;;;;5057071;28;20997;-72
2023/11/13 10:26:55;;;;;;;4.80;2.63;;;14.10;99.90;;;;;;5058811;28;20918;-70
2023/11/13 10:29:30;;;;;;;6.30;3.47;;;14.10;99.90;;;;;;5056359;28;20414;-72
2023/11/13 10:31:56;;;;;;;8.20;2.90;;;14.10;99.90;;;;;;5057117;28;20428;-71
2023/11/13 10:34:22;;;;;;;8.77;2.77;;;14.20;99.90;;;;;;5064010;28;20953;-71
2023/11/13 10:37:08;;;;;;;5.60;2.73;;;14.20;99.90;;;;;;5061554;28;20474;-72
2023/11/13 10:39:36;;;;;;;6.37;2.73;;;14.30;99.90;;;;;;5056166;28;20456;-71
2023/11/13 10:42:22;;;;;;;6.43;2.93;;;14.30;99.90;;;;;;5060106;28;20429;-71
2023/11/13 10:44:50;;;;;;;8.23;2.77;;;14.30;99.90;;;;;;5062050;28;20456;-71
2023/11/13 10:47:25;;;;;;;6.90;2.70;;;14.40;99.90;;;;;;5062305;28;20818;-70
2023/11/13 10:49:54;;;;;;;8.40;2.60;;;14.40;99.90;;;;;;5064291;28;20413;-71
2023/11/13 10:52:23;;;;;;;5.47;2.57;;;14.40;99.90;;;;;;5059870;28;21960;-71
2023/11/13 10:54:51;;;;;;;9.33;3.03;;;14.40;99.90;;;;;;5065184;28;20417;-71
2023/11/13 10:57:19;;;;;;;9.83;3.03;;;14.40;99.90;;;;;;5062640;28;20417;-71
2023/11/13 10:59:49;;;;;;;6.80;2.67;;;14.30;99.90;;;;;;5071986;28;20453;-71
2023/11/13 11:02:45;;;;;;;4.50;2.10;;;14.30;99.90;;;;;;5067545;28;20787;-71
2023/11/13 11:05:20;;;;;;;8.20;2.83;;;14.30;99.90;;;;;;5073781;28;20393;-71
2023/11/13 11:07:52;;;;;;;9.80;3.37;;;14.30;99.90;;;;;;5076489;28;20440;-71
2023/11/13 11:10:24;;;;;;;7.90;2.90;;;14.20;99.90;;;;;;5076219;28;21175;-71
2023/11/13 11:12:59;;;;;;;4.97;2.90;;;14.20;99.90;;;;;;5077903;28;20456;-72
2023/11/13 11:16:07;;;;;;;5.80;3.00;;;14.20;99.90;;;;;;5078061;28;20404;-72
2023/11/13 11:18:44;;;;;;;6.53;3.20;;;14.20;99.90;;;;;;5075027;28;20454;-72
2023/11/13 11:21:25;;;;;;;9.60;3.33;;;14.20;99.90;;;;;;5076558;28;20447;-72
2023/11/13 11:24:03;;;;;;;6.37;3.33;;;14.20;99.90;;;;;;5060116;28;20528;-72
2023/11/13 11:26:58;;;;;;;7.00;3.57;;;14.30;99.90;;;;;;5067455;28;20471;-71
2023/11/13 11:29:39;;;;;;;6.47;3.07;;;14.30;99.90;;;;;;5049211;28;20945;-70
2023/11/13 11:32:14;;;;;;;7.40;3.10;;;14.30;99.90;;;;;;5062893;28;20417;-70
2023/11/13 11:34:42;;;;;;;6.87;2.77;;;14.40;99.90;;;;;;5062947;28;20424;-70
2023/11/13 11:37:15;;;;;;;12.37;3.40;;;14.40;99.90;;;;;;5060224;28;20981;-70
2023/11/13 11:39:49;;;;;;;10.40;3.13;;;14.40;99.90;;;;;;5056463;28;20456;-70
2023/11/13 11:42:21;;;;;;;9.40;2.73;;;14.40;99.90;;;;;;5058197;28;20414;-70
2023/11/13 11:45:06;;;;;;;13.77;3.80;;;14.40;99.90;;;;;;5059260;28;20421;-71
2023/11/13 11:47:36;;;;;;;7.80;3.40;;;14.50;99.90;;;;;;5060521;28;20405;-71
2023/11/13 11:50:15;;;;;;;7.97;3.10;;;14.50;99.90;;;;;;5065798;28;20420;-70
2023/11/13 11:52:51;;;;;;;17.70;3.97;;;14.50;99.90;;;;;;5062523;28;20455;-73
2023/11/13 11:55:22;;;;;;;5.50;2.63;;;14.70;99.90;;;;;;5060875;28;20417;-71
2023/11/13 11:57:49;;;;;;;8.37;2.90;;;14.70;99.90;;;;;;5059967;28;20516;-72
2023/11/13 12:00:23;;;;;;;5.33;2.80;;;14.70;99.90;;;;;;5057206;28;20548;-72
2023/11/13 12:02:55;;;;;;;10.40;3.10;;;14.70;99.90;;;;;;5056785;28;20456;-71
2023/11/13 12:05:21;;;;;;;8.20;2.97;;;14.70;99.90;;;;;;5060183;28;20791;-71
2023/11/13 12:07:48;;;;;;;10.30;3.27;;;14.70;99.90;;;;;;5061334;28;20413;-71
2023/11/13 12:10:15;;;;;;;6.60;3.00;;;14.70;99.90;;;;;;5061695;28;20471;-73
2023/11/13 12:12:46;;;;;;;6.87;2.90;;;14.70;99.90;;;;;;5064325;28;20433;-73
2023/11/13 12:15:12;;;;;;;5.33;2.63;;;14.70;99.90;;;;;;5063564;28;20425;-73
2023/11/13 12:17:39;;;;;;;7.97;3.70;;;14.80;99.90;;;;;;5055080;28;20425;-72
2023/11/13 12:20:06;;;;;;;5.27;2.73;;;14.90;99.90;;;;;;5049829;28;20176;-71
2023/11/13 12:22:39;;;;;;;4.97;2.50;;;14.90;99.90;;;;;;5063086;28;20449;-72
2023/11/13 12:25:10;;;;;;;3.80;2.57;;;15.00;99.90;;;;;;5063051;28;20410;-72
2023/11/13 12:27:40;;;;;;;6.90;2.70;;;15.00;99.90;;;;;;5056913;28;20487;-72
2023/11/13 12:30:16;;;;;;;5.33;2.30;;;15.00;99.90;;;;;;5056295;28;20421;-71
2023/11/13 12:32:46;;;;;;;6.60;3.03;;;15.10;99.90;;;;;;5057821;28;20438;-72
2023/11/13 12:35:12;;;;;;;5.73;2.57;;;15.10;99.90;;;;;;5056427;28;20430;-71
2023/11/13 12:37:41;;;;;;;4.67;2.40;;;15.20;99.90;;;;;;5039557;28;20410;-72
2023/11/13 12:40:08;;;;;;;4.93;2.13;;;15.20;99.90;;;;;;5057075;28;20449;-72
2023/11/13 12:42:33;;;;;;;5.83;3.10;;;15.20;99.90;;;;;;5057188;28;20460;-73
2023/11/13 12:44:59;;;;;;;6.47;2.47;;;15.20;99.90;;;;;;5055898;28;20421;-72